sensor_id;sensor_type;location;lat;lon;timestamp;pressure;altitude;pressure_sealevel;temperature;humidity
67545;BME280;54380;47.770;11.150;2023-05-25T08:19:57;95149.34;;;16.91;56.68
67545;BME280;54380;47.770;11.150;2023-05-25T08:22:23;95157.34;;;16.91;56.24
67545;BME280;54380;47.770;11.150;2023-05-25T08:24:50;95157.84;;;16.93;56.54
67545;BME280;54380;47.770;11.150;2023-05-25T08:27:17;95154.84;;;16.99;56.30
67545;BME280;54380;47.770;11.150;2023-05-25T08:29:43;95151.88;;;17.25;56.47
67545;BME280;54380;47.770;11.150;2023-05-25T08:32:10;95160.63;;;17.30;55.15
67545;BME280;54380;47.770;11.150;2023-05-25T08:34:36;95157.66;;;17.32;55.39
67545;BME280;54380;47.770;11.150;2023-05-25T08:37:04;95157.06;;;17.35;55.22
67545;BME280;54380;47.770;11.150;2023-05-25T08:39:31;95160.50;;;17.41;55.20
67545;BME280;54380;47.770;11.150;2023-05-25T08:42:00;95160.44;;;17.46;55.80
67545;BME280;54380;47.770;11.150;2023-05-25T08:44:27;95164.63;;;17.52;55.99
67545;BME280;54380;47.770;11.150;2023-05-25T08:46:54;95166.66;;;17.60;55.70
67545;BME280;54380;47.770;11.150;2023-05-25T08:49:22;95158.00;;;17.68;55.45
67545;BME280;54380;47.770;11.150;2023-05-25T08:51:50;95152.38;;;17.70;55.23
67545;BME280;54380;47.770;11.150;2023-05-25T08:54:19;95151.09;;;17.86;55.87
67545;BME280;54380;47.770;11.150;2023-05-25T08:56:48;95161.78;;;18.05;55.08
67545;BME280;54380;47.770;11.150;2023-05-25T08:59:27;95154.38;;;18.16;54.81
67545;BME280;54380;47.770;11.150;2023-05-25T09:01:56;95163.13;;;18.21;54.04
67545;BME280;54380;47.770;11.150;2023-05-25T09:04:24;95164.91;;;18.26;54.40
67545;BME280;54380;47.770;11.150;2023-05-25T09:06:51;95158.75;;;18.45;54.41
67545;BME280;54380;47.770;11.150;2023-05-25T09:09:37;95166.94;;;18.67;54.77
67545;BME280;54380;47.770;11.150;2023-05-25T09:12:05;95161.97;;;18.74;52.84
67545;BME280;54380;47.770;11.150;2023-05-25T09:14:31;95167.75;;;18.81;53.08
67545;BME280;54380;47.770;11.150;2023-05-25T09:16:58;95163.44;;;18.85;52.53
67545;BME280;54380;47.770;11.150;2023-05-25T09:19:26;95166.97;;;18.81;52.74
67545;BME280;54380;47.770;11.150;2023-05-25T09:21:52;95165.38;;;18.80;53.46
67545;BME280;54380;47.770;11.150;2023-05-25T09:24:32;95168.88;;;18.94;52.17
67545;BME280;54380;47.770;11.150;2023-05-25T09:27:00;95164.63;;;18.93;53.12
67545;BME280;54380;47.770;11.150;2023-05-25T09:29:28;95171.97;;;19.01;54.01
67545;BME280;54380;47.770;11.150;2023-05-25T09:31:55;95163.06;;;19.20;52.65
67545;BME280;54380;47.770;11.150;2023-05-25T09:34:22;95168.00;;;19.26;52.69
67545;BME280;54380;47.770;11.150;2023-05-25T09:36:48;95180.38;;;19.36;51.83
67545;BME280;54380;47.770;11.150;2023-05-25T09:39:16;95178.50;;;19.37;51.81
67545;BME280;54380;47.770;11.150;2023-05-25T09:41:43;95173.94;;;19.51;53.05
67545;BME280;54380;47.770;11.150;2023-05-25T09:44:11;95187.59;;;19.77;51.93
67545;BME280;54380;47.770;11.150;2023-05-25T09:46:37;95187.38;;;19.87;52.24
67545;BME280;54380;47.770;11.150;2023-05-25T09:49:06;95185.97;;;20.04;51.47
67545;BME280;54380;47.770;11.150;2023-05-25T09:51:34;95182.06;;;20.10;51.21
67545;BME280;54380;47.770;11.150;2023-05-25T09:54:02;95189.50;;;20.13;50.91
67545;BME280;54380;47.770;11.150;2023-05-25T09:56:30;95186.16;;;20.30;51.38
67545;BME280;54380;47.770;11.150;2023-05-25T09:58:57;95184.59;;;20.51;50.47
67545;BME280;54380;47.770;11.150;2023-05-25T10:01:25;95191.03;;;20.50;50.42
67545;BME280;54380;47.770;11.150;2023-05-25T10:03:53;95186.84;;;20.58;51.54
67545;BME280;54380;47.770;11.150;2023-05-25T10:06:30;95189.94;;;20.74;50.85
67545;BME280;54380;47.770;11.150;2023-05-25T10:08:57;95193.78;;;20.81;50.10
67545;BME280;54380;47.770;11.150;2023-05-25T10:11:24;95182.22;;;20.72;49.60
67545;BME280;54380;47.770;11.150;2023-05-25T10:13:54;95182.75;;;20.60;50.03
67545;BME280;54380;47.770;11.150;2023-05-25T10:19:20;95190.97;;;20.64;49.63
67545;BME280;54380;47.770;11.150;2023-05-25T10:22:01;95192.88;;;20.64;50.02
67545;BME280;54380;47.770;11.150;2023-05-25T10:24:33;95202.69;;;20.68;50.30
67545;BME280;54380;47.770;11.150;2023-05-25T10:27:00;95203.47;;;20.91;50.26
67545;BME280;54380;47.770;11.150;2023-05-25T10:29:44;95198.50;;;21.07;49.03
67545;BME280;54380;47.770;11.150;2023-05-25T10:32:13;95200.03;;;20.99;48.78
67545;BME280;54380;47.770;11.150;2023-05-25T10:34:44;95191.19;;;20.99;49.54
67545;BME280;54380;47.770;11.150;2023-05-25T10:37:11;95194.34;;;21.01;48.99
67545;BME280;54380;47.770;11.150;2023-05-25T10:39:39;95202.88;;;21.03;49.43
67545;BME280;54380;47.770;11.150;2023-05-25T10:42:06;95200.84;;;21.09;49.69
67545;BME280;54380;47.770;11.150;2023-05-25T10:44:34;95204.28;;;21.32;48.87
67545;BME280;54380;47.770;11.150;2023-05-25T10:47:01;95199.88;;;21.36;47.92
67545;BME280;54380;47.770;11.150;2023-05-25T10:49:32;95196.88;;;21.37;48.51
67545;BME280;54380;47.770;11.150;2023-05-25T10:52:01;95200.56;;;21.41;48.86
67545;BME280;54380;47.770;11.150;2023-05-25T10:54:29;95202.78;;;21.48;49.14
67545;BME280;54380;47.770;11.150;2023-05-25T10:57:08;95200.56;;;21.50;48.54
67545;BME280;54380;47.770;11.150;2023-05-25T10:59:39;95205.50;;;21.57;49.05
67545;BME280;54380;47.770;11.150;2023-05-25T11:02:06;95209.81;;;21.75;48.71
67545;BME280;54380;47.770;11.150;2023-05-25T11:04:34;95211.25;;;21.90;47.92
67545;BME280;54380;47.770;11.150;2023-05-25T11:07:12;95194.81;;;22.00;48.10
67545;BME280;54380;47.770;11.150;2023-05-25T11:09:41;95195.00;;;22.12;47.91
67545;BME280;54380;47.770;11.150;2023-05-25T11:12:18;95204.19;;;22.29;47.80
67545;BME280;54380;47.770;11.150;2023-05-25T11:17:32;95203.25;;;22.25;47.99
67545;BME280;54380;47.770;11.150;2023-05-25T11:20:09;95199.16;;;22.36;47.58
67545;BME280;54380;47.770;11.150;2023-05-25T11:22:50;95192.31;;;22.47;47.02
67545;BME280;54380;47.770;11.150;2023-05-25T11:25:37;95197.41;;;22.31;47.31
67545;BME280;54380;47.770;11.150;2023-05-25T11:28:05;95201.53;;;22.20;47.26
67545;BME280;54380;47.770;11.150;2023-05-25T11:30:32;95192.31;;;22.30;47.60
67545;BME280;54380;47.770;11.150;2023-05-25T11:33:01;95193.13;;;22.39;47.45
67545;BME280;54380;47.770;11.150;2023-05-25T11:35:28;95192.81;;;22.49;47.91
67545;BME280;54380;47.770;11.150;2023-05-25T11:40:38;95187.06;;;22.68;46.85
67545;BME280;54380;47.770;11.150;2023-05-25T11:43:12;95184.88;;;22.70;47.18
67545;BME280;54380;47.770;11.150;2023-05-25T11:45:39;95180.09;;;22.76;46.96
67545;BME280;54380;47.770;11.150;2023-05-25T11:48:11;95184.81;;;22.88;46.67
67545;BME280;54380;47.770;11.150;2023-05-25T11:50:38;95185.78;;;22.74;45.60
67545;BME280;54380;47.770;11.150;2023-05-25T11:53:05;95190.75;;;22.46;46.92
67545;BME280;54380;47.770;11.150;2023-05-25T11:55:32;95192.31;;;22.47;46.75
67545;BME280;54380;47.770;11.150;2023-05-25T11:58:01;95194.84;;;22.52;47.20
67545;BME280;54380;47.770;11.150;2023-05-25T12:00:28;95194.56;;;22.54;46.71
67545;BME280;54380;47.770;11.150;2023-05-25T12:02:55;95195.16;;;22.60;46.99
67545;BME280;54380;47.770;11.150;2023-05-25T12:05:22;95193.41;;;22.72;47.38
67545;BME280;54380;47.770;11.150;2023-05-25T12:07:50;95183.53;;;22.85;47.12
67545;BME280;54380;47.770;11.150;2023-05-25T12:10:18;95185.78;;;22.74;46.85
67545;BME280;54380;47.770;11.150;2023-05-25T12:12:45;95193.72;;;22.71;45.86
67545;BME280;54380;47.770;11.150;2023-05-25T12:15:20;95196.72;;;22.69;46.24
67545;BME280;54380;47.770;11.150;2023-05-25T12:17:48;95188.34;;;22.53;46.87
67545;BME280;54380;47.770;11.150;2023-05-25T12:20:16;95184.56;;;22.54;47.32
67545;BME280;54380;47.770;11.150;2023-05-25T12:22:43;95189.44;;;22.61;46.75
67545;BME280;54380;47.770;11.150;2023-05-25T12:25:11;95186.63;;;22.57;47.60
67545;BME280;54380;47.770;11.150;2023-05-25T12:27:38;95177.41;;;22.76;47.12
67545;BME280;54380;47.770;11.150;2023-05-25T12:30:06;95179.75;;;22.86;47.58
67545;BME280;54380;47.770;11.150;2023-05-25T12:35:21;95176.16;;;22.73;47.18
67545;BME280;54380;47.770;11.150;2023-05-25T12:37:48;95179.47;;;22.79;47.25
67545;BME280;54380;47.770;11.150;2023-05-25T12:40:28;95183.91;;;22.75;47.11
67545;BME280;54380;47.770;11.150;2023-05-25T12:43:04;95178.53;;;22.75;47.24
67545;BME280;54380;47.770;11.150;2023-05-25T12:45:39;95179.63;;;22.74;47.22
67545;BME280;54380;47.770;11.150;2023-05-25T12:48:07;95176.13;;;22.82;48.17
67545;BME280;54380;47.770;11.150;2023-05-25T12:50:58;95171.03;;;23.07;47.66
67545;BME280;54380;47.770;11.150;2023-05-25T12:53:26;95181.31;;;23.05;47.08
67545;BME280;54380;47.770;11.150;2023-05-25T12:56:01;95184.97;;;22.83;46.51
67545;BME280;54380;47.770;11.150;2023-05-25T12:58:43;95178.69;;;22.61;47.61
67545;BME280;54380;47.770;11.150;2023-05-25T13:01:10;95183.94;;;22.57;47.81
67545;BME280;54380;47.770;11.150;2023-05-25T13:03:37;95186.00;;;22.43;48.13
67545;BME280;54380;47.770;11.150;2023-05-25T13:06:05;95182.84;;;22.41;48.48
67545;BME280;54380;47.770;11.150;2023-05-25T13:08:32;95194.06;;;22.52;48.54
67545;BME280;54380;47.770;11.150;2023-05-25T13:10:58;95197.88;;;22.42;48.37
67545;BME280;54380;47.770;11.150;2023-05-25T13:13:26;95194.25;;;22.38;48.41
67545;BME280;54380;47.770;11.150;2023-05-25T13:15:53;95181.09;;;22.54;48.67
67545;BME280;54380;47.770;11.150;2023-05-25T13:18:19;95193.28;;;22.51;48.43
67545;BME280;54380;47.770;11.150;2023-05-25T13:20:46;95194.53;;;22.45;48.57
67545;BME280;54380;47.770;11.150;2023-05-25T13:23:19;95186.63;;;22.57;49.01
67545;BME280;54380;47.770;11.150;2023-05-25T13:25:45;95179.16;;;22.72;48.31
67545;BME280;54380;47.770;11.150;2023-05-25T13:28:12;95183.59;;;22.68;48.55
67545;BME280;54380;47.770;11.150;2023-05-25T13:30:39;95181.53;;;22.73;48.65
67545;BME280;54380;47.770;11.150;2023-05-25T13:33:05;95181.88;;;22.54;48.43
67545;BME280;54380;47.770;11.150;2023-05-25T13:35:32;95179.19;;;22.46;49.22
67545;BME280;54380;47.770;11.150;2023-05-25T13:38:11;95181.41;;;22.44;48.83
67545;BME280;54380;47.770;11.150;2023-05-25T13:40:43;95176.84;;;22.44;48.36
67545;BME280;54380;47.770;11.150;2023-05-25T13:43:10;95179.19;;;22.46;47.92
67545;BME280;54380;47.770;11.150;2023-05-25T13:45:37;95172.72;;;22.47;48.83
67545;BME280;54380;47.770;11.150;2023-05-25T13:48:04;95167.16;;;22.61;49.08
67545;BME280;54380;47.770;11.150;2023-05-25T13:50:31;95162.56;;;22.70;48.98
67545;BME280;54380;47.770;11.150;2023-05-25T13:52:57;95171.56;;;22.74;49.24
67545;BME280;54380;47.770;11.150;2023-05-25T13:55:24;95172.00;;;22.85;49.18
67545;BME280;54380;47.770;11.150;2023-05-25T13:57:53;95179.44;;;22.96;48.14
67545;BME280;54380;47.770;11.150;2023-05-25T14:00:20;95183.72;;;22.97;47.39
67545;BME280;54380;47.770;11.150;2023-05-25T14:02:46;95178.16;;;22.85;48.31
67545;BME280;54380;47.770;11.150;2023-05-25T14:05:13;95180.13;;;22.67;49.03
67545;BME280;54380;47.770;11.150;2023-05-25T14:07:40;95183.78;;;22.54;49.70
67545;BME280;54380;47.770;11.150;2023-05-25T14:10:06;95180.13;;;22.58;49.77
67545;BME280;54380;47.770;11.150;2023-05-25T14:12:35;95177.75;;;22.57;49.46
67545;BME280;54380;47.770;11.150;2023-05-25T14:15:03;95184.38;;;22.68;49.51
67545;BME280;54380;47.770;11.150;2023-05-25T14:17:30;95186.94;;;22.65;49.48
67545;BME280;54380;47.770;11.150;2023-05-25T14:19:57;95184.25;;;22.56;49.10
67545;BME280;54380;47.770;11.150;2023-05-25T14:22:24;95180.00;;;22.46;49.62
67545;BME280;54380;47.770;11.150;2023-05-25T14:24:52;95182.22;;;22.44;49.48
67545;BME280;54380;47.770;11.150;2023-05-25T14:27:19;95179.19;;;22.46;49.77
67545;BME280;54380;47.770;11.150;2023-05-25T14:29:48;95185.53;;;22.50;49.89
67545;BME280;54380;47.770;11.150;2023-05-25T14:32:17;95185.03;;;22.48;49.78
67545;BME280;54380;47.770;11.150;2023-05-25T14:34:44;95179.19;;;22.37;49.64
67545;BME280;54380;47.770;11.150;2023-05-25T14:37:11;95186.00;;;22.34;49.74
67545;BME280;54380;47.770;11.150;2023-05-25T14:39:37;95182.53;;;22.34;49.97
67545;BME280;54380;47.770;11.150;2023-05-25T14:42:04;95187.13;;;22.33;50.37
67545;BME280;54380;47.770;11.150;2023-05-25T14:44:31;95184.75;;;22.32;50.27
67545;BME280;54380;47.770;11.150;2023-05-25T14:46:58;95183.00;;;22.27;51.08
67545;BME280;54380;47.770;11.150;2023-05-25T14:49:26;95182.53;;;22.25;50.98
67545;BME280;54380;47.770;11.150;2023-05-25T14:51:53;95187.13;;;22.33;51.24
67545;BME280;54380;47.770;11.150;2023-05-25T14:54:20;95186.00;;;22.34;51.10
67545;BME280;54380;47.770;11.150;2023-05-25T14:56:47;95194.25;;;22.38;50.84
67545;BME280;54380;47.770;11.150;2023-05-25T14:59:14;95190.75;;;22.46;50.92
67545;BME280;54380;47.770;11.150;2023-05-25T15:01:41;95191.53;;;22.47;50.98
67545;BME280;54380;47.770;11.150;2023-05-25T15:04:07;95185.38;;;22.46;50.95
67545;BME280;54380;47.770;11.150;2023-05-25T15:06:36;95197.53;;;22.52;51.25
67545;BME280;54380;47.770;11.150;2023-05-25T15:09:04;95195.00;;;22.65;50.72
67545;BME280;54380;47.770;11.150;2023-05-25T15:11:31;95192.16;;;22.70;49.85
67545;BME280;54380;47.770;11.150;2023-05-25T15:13:58;95198.16;;;22.67;49.08
67545;BME280;54380;47.770;11.150;2023-05-25T15:16:25;95192.78;;;22.58;47.87
67545;BME280;54380;47.770;11.150;2023-05-25T15:18:52;95194.88;;;22.44;48.21
67545;BME280;54380;47.770;11.150;2023-05-25T15:21:19;95197.88;;;22.42;50.16
67545;BME280;54380;47.770;11.150;2023-05-25T15:23:47;95192.34;;;22.39;49.96
67545;BME280;54380;47.770;11.150;2023-05-25T15:26:14;95192.03;;;22.31;49.48
67545;BME280;54380;47.770;11.150;2023-05-25T15:28:40;95197.84;;;22.25;49.55
67545;BME280;54380;47.770;11.150;2023-05-25T15:31:07;95200.72;;;22.20;49.49
67545;BME280;54380;47.770;11.150;2023-05-25T15:33:34;95203.22;;;22.16;49.80
67545;BME280;54380;47.770;11.150;2023-05-25T15:36:23;95198.47;;;22.13;49.60
67545;BME280;54380;47.770;11.150;2023-05-25T15:38:51;95191.38;;;22.17;50.33
67545;BME280;54380;47.770;11.150;2023-05-25T15:41:18;95198.50;;;22.22;50.61
67545;BME280;54380;47.770;11.150;2023-05-25T15:43:45;95200.56;;;22.25;50.91
67545;BME280;54380;47.770;11.150;2023-05-25T15:46:15;95204.34;;;22.15;48.95
67545;BME280;54380;47.770;11.150;2023-05-25T15:48:42;95203.22;;;22.07;48.74
67545;BME280;54380;47.770;11.150;2023-05-25T15:51:08;95204.16;;;22.11;48.87
67545;BME280;54380;47.770;11.150;2023-05-25T15:53:35;95200.38;;;22.12;48.53
67545;BME280;54380;47.770;11.150;2023-05-25T15:56:03;95198.47;;;22.04;48.06
67545;BME280;54380;47.770;11.150;2023-05-25T15:58:30;95198.63;;;21.99;48.44
67545;BME280;54380;47.770;11.150;2023-05-25T16:00:59;95203.81;;;21.96;48.68
67545;BME280;54380;47.770;11.150;2023-05-25T16:03:26;95212.22;;;21.94;49.17
67545;BME280;54380;47.770;11.150;2023-05-25T16:05:53;95219.16;;;21.86;48.46
67545;BME280;54380;47.770;11.150;2023-05-25T16:08:20;95210.59;;;21.76;48.14
67545;BME280;54380;47.770;11.150;2023-05-25T16:10:47;95221.34;;;21.67;48.38
67545;BME280;54380;47.770;11.150;2023-05-25T16:13:15;95212.94;;;21.60;48.83
67545;BME280;54380;47.770;11.150;2023-05-25T16:15:42;95216.53;;;21.55;48.93
67545;BME280;54380;47.770;11.150;2023-05-25T16:18:09;95219.72;;;21.57;49.42
67545;BME280;54380;47.770;11.150;2023-05-25T16:20:35;95220.34;;;21.54;48.72
67545;BME280;54380;47.770;11.150;2023-05-25T16:23:02;95218.09;;;21.47;48.49
67545;BME280;54380;47.770;11.150;2023-05-25T16:25:29;95227.06;;;21.43;48.89
67545;BME280;54380;47.770;11.150;2023-05-25T16:27:55;95224.25;;;21.48;49.16
67545;BME280;54380;47.770;11.150;2023-05-25T16:30:23;95231.25;;;21.58;49.66
67545;BME280;54380;47.770;11.150;2023-05-25T16:32:50;95231.41;;;21.61;49.53
67545;BME280;54380;47.770;11.150;2023-05-25T16:35:17;95228.91;;;21.65;51.48
67545;BME280;54380;47.770;11.150;2023-05-25T16:37:44;95221.78;;;21.60;51.09
67545;BME280;54380;47.770;11.150;2023-05-25T16:40:11;95219.72;;;21.57;50.12
67545;BME280;54380;47.770;11.150;2023-05-25T16:42:38;95230.31;;;21.62;51.94
67545;BME280;54380;47.770;11.150;2023-05-25T16:45:05;95227.16;;;21.60;50.82
67545;BME280;54380;47.770;11.150;2023-05-25T16:47:33;95227.59;;;21.54;50.09
67545;BME280;54380;47.770;11.150;2023-05-25T16:50:00;95221.75;;;21.52;50.42
67545;BME280;54380;47.770;11.150;2023-05-25T16:52:27;95233.13;;;21.48;50.28
67545;BME280;54380;47.770;11.150;2023-05-25T16:54:53;95223.47;;;21.47;50.28
67545;BME280;54380;47.770;11.150;2023-05-25T16:57:21;95226.00;;;21.44;50.13
67545;BME280;54380;47.770;11.150;2023-05-25T16:59:48;95217.94;;;21.44;50.09
67545;BME280;54380;47.770;11.150;2023-05-25T17:02:17;95222.97;;;21.45;49.97
67545;BME280;54380;47.770;11.150;2023-05-25T17:04:45;95220.00;;;21.47;50.00
67545;BME280;54380;47.770;11.150;2023-05-25T17:07:12;95229.75;;;21.43;49.52
67545;BME280;54380;47.770;11.150;2023-05-25T17:09:39;95234.97;;;21.39;49.73
67545;BME280;54380;47.770;11.150;2023-05-25T17:12:06;95234.59;;;21.32;49.55
67545;BME280;54380;47.770;11.150;2023-05-25T17:14:33;95229.81;;;21.20;49.68
67545;BME280;54380;47.770;11.150;2023-05-25T17:17:00;95231.19;;;21.09;49.93
67545;BME280;54380;47.770;11.150;2023-05-25T17:19:26;95227.03;;;21.03;50.25
67545;BME280;54380;47.770;11.150;2023-05-25T17:21:56;95227.66;;;21.00;50.67
67545;BME280;54380;47.770;11.150;2023-05-25T17:24:23;95229.84;;;20.98;50.71
67545;BME280;54380;47.770;11.150;2023-05-25T17:26:50;95228.91;;;20.94;51.03
67545;BME280;54380;47.770;11.150;2023-05-25T17:29:17;95230.31;;;20.91;50.94
67545;BME280;54380;47.770;11.150;2023-05-25T17:31:43;95230.44;;;20.86;51.35
67545;BME280;54380;47.770;11.150;2023-05-25T17:34:13;95225.31;;;20.76;51.47
67545;BME280;54380;47.770;11.150;2023-05-25T17:36:40;95236.28;;;20.66;51.86
67545;BME280;54380;47.770;11.150;2023-05-25T17:39:09;95235.91;;;20.58;51.79
67545;BME280;54380;47.770;11.150;2023-05-25T17:41:37;95234.25;;;20.49;52.01
67545;BME280;54380;47.770;11.150;2023-05-25T17:44:04;95239.22;;;20.42;52.25
67545;BME280;54380;47.770;11.150;2023-05-25T17:46:30;95242.81;;;20.37;52.52
67545;BME280;54380;47.770;11.150;2023-05-25T17:48:57;95248.00;;;20.33;52.38
67545;BME280;54380;47.770;11.150;2023-05-25T17:51:24;95239.56;;;20.26;52.60
67545;BME280;54380;47.770;11.150;2023-05-25T17:53:51;95248.06;;;20.20;52.81
67545;BME280;54380;47.770;11.150;2023-05-25T17:56:19;95253.03;;;20.12;52.91
67545;BME280;54380;47.770;11.150;2023-05-25T17:58:46;95252.03;;;20.08;53.22
67545;BME280;54380;47.770;11.150;2023-05-25T18:01:13;95252.63;;;20.05;53.48
67545;BME280;54380;47.770;11.150;2023-05-25T18:03:41;95256.41;;;20.04;53.63
67545;BME280;54380;47.770;11.150;2023-05-25T18:06:07;95254.81;;;20.03;53.68
67545;BME280;54380;47.770;11.150;2023-05-25T18:08:34;95257.81;;;20.02;53.97
67545;BME280;54380;47.770;11.150;2023-05-25T18:11:01;95260.59;;;19.97;54.01
67545;BME280;54380;47.770;11.150;2023-05-25T18:13:30;95258.53;;;19.93;54.02
67545;BME280;54380;47.770;11.150;2023-05-25T18:15:57;95259.91;;;19.91;54.19
67545;BME280;54380;47.770;11.150;2023-05-25T18:18:23;95261.31;;;19.88;54.42
67545;BME280;54380;47.770;11.150;2023-05-25T18:20:50;95265.06;;;19.87;54.43
67545;BME280;54380;47.770;11.150;2023-05-25T18:23:17;95260.00;;;19.86;54.15
67545;BME280;54380;47.770;11.150;2023-05-25T18:25:43;95265.38;;;19.86;54.38
67545;BME280;54380;47.770;11.150;2023-05-25T18:28:11;95261.69;;;19.82;54.30
67545;BME280;54380;47.770;11.150;2023-05-25T18:30:42;95270.03;;;19.80;54.20
67545;BME280;54380;47.770;11.150;2023-05-25T18:33:08;95260.72;;;19.78;54.45
67545;BME280;54380;47.770;11.150;2023-05-25T18:35:36;95264.47;;;19.77;54.54
67545;BME280;54380;47.770;11.150;2023-05-25T18:38:03;95266.38;;;19.76;54.57
67545;BME280;54380;47.770;11.150;2023-05-25T18:40:30;95261.00;;;19.76;54.69
67545;BME280;54380;47.770;11.150;2023-05-25T18:42:56;95259.91;;;19.77;54.82
67545;BME280;54380;47.770;11.150;2023-05-25T18:45:23;95261.78;;;19.77;54.89
67545;BME280;54380;47.770;11.150;2023-05-25T18:47:53;95262.41;;;19.73;54.86
67545;BME280;54380;47.770;11.150;2023-05-25T18:50:19;95268.03;;;19.72;55.03
67545;BME280;54380;47.770;11.150;2023-05-25T18:52:46;95276.66;;;19.69;54.91
67545;BME280;54380;47.770;11.150;2023-05-25T18:55:16;95279.91;;;19.66;55.23
67545;BME280;54380;47.770;11.150;2023-05-25T18:57:43;95276.75;;;19.64;55.21
67545;BME280;54380;47.770;11.150;2023-05-25T19:00:10;95287.56;;;19.59;55.30
67545;BME280;54380;47.770;11.150;2023-05-25T19:02:37;95284.59;;;19.46;55.60
67545;BME280;54380;47.770;11.150;2023-05-25T19:05:06;95290.41;;;19.35;55.85
67545;BME280;54380;47.770;11.150;2023-05-25T19:07:33;95289.00;;;19.23;55.83
67545;BME280;54380;47.770;11.150;2023-05-25T19:10:07;95296.13;;;19.14;55.89
67545;BME280;54380;47.770;11.150;2023-05-25T19:12:34;95301.06;;;19.07;56.03
67545;BME280;54380;47.770;11.150;2023-05-25T19:15:01;95302.03;;;18.97;56.03
67545;BME280;54380;47.770;11.150;2023-05-25T19:17:27;95300.28;;;18.88;56.42
67545;BME280;54380;47.770;11.150;2023-05-25T19:19:54;95307.41;;;18.78;56.88
67545;BME280;54380;47.770;11.150;2023-05-25T19:22:22;95307.25;;;18.70;56.90
67545;BME280;54380;47.770;11.150;2023-05-25T19:24:49;95311.06;;;18.63;57.31
67545;BME280;54380;47.770;11.150;2023-05-25T19:27:26;95317.59;;;18.57;57.07
67545;BME280;54380;47.770;11.150;2023-05-25T19:29:53;95312.59;;;18.51;57.37
67545;BME280;54380;47.770;11.150;2023-05-25T19:32:20;95307.91;;;18.42;57.59
67545;BME280;54380;47.770;11.150;2023-05-25T19:34:47;95314.13;;;18.38;57.86
67545;BME280;54380;47.770;11.150;2023-05-25T19:37:13;95308.84;;;18.33;57.83
67545;BME280;54380;47.770;11.150;2023-05-25T19:39:41;95314.47;;;18.31;58.09
67545;BME280;54380;47.770;11.150;2023-05-25T19:42:08;95315.56;;;18.30;58.78
67545;BME280;54380;47.770;11.150;2023-05-25T19:44:35;95312.09;;;18.30;59.00
67545;BME280;54380;47.770;11.150;2023-05-25T19:47:01;95318.00;;;18.27;58.25
67545;BME280;54380;47.770;11.150;2023-05-25T19:49:28;95318.66;;;18.18;57.97
67545;BME280;54380;47.770;11.150;2023-05-25T19:51:55;95322.25;;;18.09;58.23
67545;BME280;54380;47.770;11.150;2023-05-25T19:54:22;95321.75;;;18.07;58.52
67545;BME280;54380;47.770;11.150;2023-05-25T19:56:50;95325.00;;;18.04;58.75
67545;BME280;54380;47.770;11.150;2023-05-25T19:59:16;95330.09;;;18.00;58.97
67545;BME280;54380;47.770;11.150;2023-05-25T20:01:43;95331.97;;;17.99;59.03
67545;BME280;54380;47.770;11.150;2023-05-25T20:04:09;95339.47;;;17.97;58.83
67545;BME280;54380;47.770;11.150;2023-05-25T20:06:36;95341.16;;;17.93;58.46
67545;BME280;54380;47.770;11.150;2023-05-25T20:09:04;95334.78;;;17.89;58.88
67545;BME280;54380;47.770;11.150;2023-05-25T20:11:31;95341.47;;;17.87;59.27
67545;BME280;54380;47.770;11.150;2023-05-25T20:13:59;95339.91;;;17.86;59.65
67545;BME280;54380;47.770;11.150;2023-05-25T20:16:26;95337.81;;;17.83;59.55
67545;BME280;54380;47.770;11.150;2023-05-25T20:18:52;95347.69;;;17.77;59.00
67545;BME280;54380;47.770;11.150;2023-05-25T20:21:19;95346.22;;;17.66;58.79
67545;BME280;54380;47.770;11.150;2023-05-25T20:23:46;95346.88;;;17.52;58.72
67545;BME280;54380;47.770;11.150;2023-05-25T20:26:12;95339.50;;;17.44;59.37
67545;BME280;54380;47.770;11.150;2023-05-25T20:28:39;95347.78;;;17.43;60.19
67545;BME280;54380;47.770;11.150;2023-05-25T20:31:08;95346.97;;;17.42;60.64
67545;BME280;54380;47.770;11.150;2023-05-25T20:33:34;95345.94;;;17.43;61.10
67545;BME280;54380;47.770;11.150;2023-05-25T20:36:01;95348.59;;;17.43;60.92
67545;BME280;54380;47.770;11.150;2023-05-25T20:38:28;95348.03;;;17.46;60.87
67545;BME280;54380;47.770;11.150;2023-05-25T20:40:54;95339.50;;;17.44;61.21
67545;BME280;54380;47.770;11.150;2023-05-25T20:43:21;95337.09;;;17.43;61.20
67545;BME280;54380;47.770;11.150;2023-05-25T20:45:48;95345.09;;;17.43;61.67
67545;BME280;54380;47.770;11.150;2023-05-25T20:48:16;95336.31;;;17.42;61.64
67545;BME280;54380;47.770;11.150;2023-05-25T20:50:42;95344.84;;;17.44;61.42
67545;BME280;54380;47.770;11.150;2023-05-25T20:53:09;95341.66;;;17.42;60.39
67545;BME280;54380;47.770;11.150;2023-05-25T20:55:36;95343.34;;;17.33;59.90
67545;BME280;54380;47.770;11.150;2023-05-25T20:58:03;95347.97;;;17.22;59.71
67545;BME280;54380;47.770;11.150;2023-05-25T21:00:30;95341.94;;;17.11;59.31
67545;BME280;54380;47.770;11.150;2023-05-25T21:02:57;95347.34;;;17.01;59.52
67545;BME280;54380;47.770;11.150;2023-05-25T21:05:25;95346.59;;;16.96;60.18
67545;BME280;54380;47.770;11.150;2023-05-25T21:07:52;95336.78;;;16.91;60.85
67545;BME280;54380;47.770;11.150;2023-05-25T21:10:18;95342.94;;;16.86;60.62
67545;BME280;54380;47.770;11.150;2023-05-25T21:12:45;95341.38;;;16.80;60.69
67545;BME280;54380;47.770;11.150;2023-05-25T21:15:12;95338.44;;;16.77;61.55
67545;BME280;54380;47.770;11.150;2023-05-25T21:17:38;95336.63;;;16.77;61.52
67545;BME280;54380;47.770;11.150;2023-05-25T21:20:05;95341.09;;;16.77;61.98
67545;BME280;54380;47.770;11.150;2023-05-25T21:22:35;95345.09;;;16.74;62.21
67545;BME280;54380;47.770;11.150;2023-05-25T21:25:02;95343.25;;;16.75;62.05